sensor_id;sensor_type;location;lat;lon;timestamp;P1;durP1;ratioP1;P2;durP2;ratioP2
20036;SDS011;10179;42.640;23.312;2023-05-16T00:02:25;21.08;;;10.15;;
20036;SDS011;10179;42.640;23.312;2023-05-16T00:04:51;18.20;;;10.57;;
20036;SDS011;10179;42.640;23.312;2023-05-16T00:07:16;22.27;;;10.02;;
20036;SDS011;10179;42.640;23.312;2023-05-16T00:09:42;17.05;;;10.63;;
20036;SDS011;10179;42.640;23.312;2023-05-16T00:12:07;15.27;;;9.80;;
20036;SDS011;10179;42.640;23.312;2023-05-16T00:14:33;17.17;;;10.57;;
20036;SDS011;10179;42.640;23.312;2023-05-16T00:17:00;18.15;;;9.77;;
20036;SDS011;10179;42.640;23.312;2023-05-16T00:19:25;20.17;;;11.27;;
20036;SDS011;10179;42.640;23.312;2023-05-16T00:21:52;16.65;;;10.25;;
20036;SDS011;10179;42.640;23.312;2023-05-16T00:24:17;18.65;;;10.65;;
20036;SDS011;10179;42.640;23.312;2023-05-16T00:26:43;20.50;;;10.93;;
20036;SDS011;10179;42.640;23.312;2023-05-16T00:29:08;16.85;;;10.35;;
20036;SDS011;10179;42.640;23.312;2023-05-16T00:31:34;17.40;;;9.80;;
20036;SDS011;10179;42.640;23.312;2023-05-16T00:33:59;18.05;;;11.02;;
20036;SDS011;10179;42.640;23.312;2023-05-16T00:36:25;15.68;;;8.93;;
20036;SDS011;10179;42.640;23.312;2023-05-16T00:38:50;19.15;;;10.70;;
20036;SDS011;10179;42.640;23.312;2023-05-16T00:41:16;21.08;;;11.25;;
20036;SDS011;10179;42.640;23.312;2023-05-16T00:43:42;16.73;;;10.15;;
20036;SDS011;10179;42.640;23.312;2023-05-16T00:46:07;16.98;;;11.23;;
20036;SDS011;10179;42.640;23.312;2023-05-16T00:48:32;17.30;;;10.77;;
20036;SDS011;10179;42.640;23.312;2023-05-16T00:50:58;13.90;;;9.93;;
20036;SDS011;10179;42.640;23.312;2023-05-16T00:53:25;23.13;;;10.57;;
20036;SDS011;10179;42.640;23.312;2023-05-16T00:55:50;19.02;;;10.73;;
20036;SDS011;10179;42.640;23.312;2023-05-16T00:58:17;16.52;;;9.85;;
20036;SDS011;10179;42.640;23.312;2023-05-16T01:00:43;18.80;;;9.80;;
20036;SDS011;10179;42.640;23.312;2023-05-16T01:03:09;19.88;;;9.98;;
20036;SDS011;10179;42.640;23.312;2023-05-16T01:05:35;15.38;;;9.85;;
20036;SDS011;10179;42.640;23.312;2023-05-16T01:08:01;17.50;;;10.88;;
20036;SDS011;10179;42.640;23.312;2023-05-16T01:10:28;18.35;;;10.55;;
20036;SDS011;10179;42.640;23.312;2023-05-16T01:15:55;18.30;;;11.25;;
20036;SDS011;10179;42.640;23.312;2023-05-16T01:18:38;16.15;;;10.68;;
20036;SDS011;10179;42.640;23.312;2023-05-16T01:21:12;17.15;;;11.23;;
20036;SDS011;10179;42.640;23.312;2023-05-16T01:23:51;15.88;;;10.65;;
20036;SDS011;10179;42.640;23.312;2023-05-16T01:26:37;20.27;;;11.13;;
20036;SDS011;10179;42.640;23.312;2023-05-16T01:29:05;16.42;;;10.82;;
20036;SDS011;10179;42.640;23.312;2023-05-16T01:31:31;15.80;;;9.70;;
20036;SDS011;10179;42.640;23.312;2023-05-16T01:33:56;16.33;;;10.25;;
20036;SDS011;10179;42.640;23.312;2023-05-16T01:36:29;18.90;;;10.73;;
20036;SDS011;10179;42.640;23.312;2023-05-16T01:39:09;17.95;;;10.10;;
20036;SDS011;10179;42.640;23.312;2023-05-16T01:44:49;15.75;;;10.80;;
20036;SDS011;10179;42.640;23.312;2023-05-16T01:47:19;24.27;;;11.15;;
20036;SDS011;10179;42.640;23.312;2023-05-16T01:52:42;15.27;;;9.73;;
20036;SDS011;10179;42.640;23.312;2023-05-16T01:55:35;15.18;;;10.85;;
20036;SDS011;10179;42.640;23.312;2023-05-16T01:58:06;15.77;;;10.07;;
20036;SDS011;10179;42.640;23.312;2023-05-16T02:00:34;16.88;;;10.15;;
20036;SDS011;10179;42.640;23.312;2023-05-16T02:02:59;16.63;;;10.25;;
20036;SDS011;10179;42.640;23.312;2023-05-16T02:05:25;14.20;;;9.40;;
20036;SDS011;10179;42.640;23.312;2023-05-16T02:07:50;18.40;;;9.35;;
20036;SDS011;10179;42.640;23.312;2023-05-16T02:10:16;16.45;;;10.50;;
20036;SDS011;10179;42.640;23.312;2023-05-16T02:12:42;14.65;;;9.88;;
20036;SDS011;10179;42.640;23.312;2023-05-16T02:15:07;17.90;;;11.05;;
20036;SDS011;10179;42.640;23.312;2023-05-16T02:17:34;20.20;;;11.38;;
20036;SDS011;10179;42.640;23.312;2023-05-16T02:19:59;12.73;;;9.70;;
20036;SDS011;10179;42.640;23.312;2023-05-16T02:22:30;19.08;;;10.90;;
20036;SDS011;10179;42.640;23.312;2023-05-16T02:24:56;20.20;;;10.68;;
20036;SDS011;10179;42.640;23.312;2023-05-16T02:27:22;17.35;;;10.48;;
20036;SDS011;10179;42.640;23.312;2023-05-16T02:29:47;16.85;;;9.80;;
20036;SDS011;10179;42.640;23.312;2023-05-16T02:32:12;14.60;;;9.48;;
20036;SDS011;10179;42.640;23.312;2023-05-16T02:34:38;14.80;;;9.82;;
20036;SDS011;10179;42.640;23.312;2023-05-16T02:37:03;16.73;;;10.35;;
20036;SDS011;10179;42.640;23.312;2023-05-16T02:39:29;17.17;;;10.02;;
20036;SDS011;10179;42.640;23.312;2023-05-16T02:41:55;17.88;;;10.32;;
20036;SDS011;10179;42.640;23.312;2023-05-16T02:44:21;14.73;;;9.55;;
20036;SDS011;10179;42.640;23.312;2023-05-16T02:46:46;14.90;;;9.82;;
20036;SDS011;10179;42.640;23.312;2023-05-16T02:49:12;14.85;;;9.25;;
20036;SDS011;10179;42.640;23.312;2023-05-16T02:51:37;14.30;;;10.13;;
20036;SDS011;10179;42.640;23.312;2023-05-16T02:54:02;20.88;;;10.18;;
20036;SDS011;10179;42.640;23.312;2023-05-16T02:56:28;16.80;;;10.23;;
20036;SDS011;10179;42.640;23.312;2023-05-16T02:58:54;19.52;;;10.27;;
20036;SDS011;10179;42.640;23.312;2023-05-16T03:01:20;17.10;;;9.98;;
20036;SDS011;10179;42.640;23.312;2023-05-16T03:03:45;17.95;;;9.60;;
20036;SDS011;10179;42.640;23.312;2023-05-16T03:06:11;16.10;;;10.00;;
20036;SDS011;10179;42.640;23.312;2023-05-16T03:08:36;15.13;;;9.43;;
20036;SDS011;10179;42.640;23.312;2023-05-16T03:11:02;20.55;;;10.27;;
20036;SDS011;10179;42.640;23.312;2023-05-16T03:13:28;15.68;;;9.73;;
20036;SDS011;10179;42.640;23.312;2023-05-16T03:15:54;14.13;;;9.70;;
20036;SDS011;10179;42.640;23.312;2023-05-16T03:18:20;18.02;;;10.60;;
20036;SDS011;10179;42.640;23.312;2023-05-16T03:20:45;16.85;;;10.75;;
20036;SDS011;10179;42.640;23.312;2023-05-16T03:23:11;12.55;;;8.73;;
20036;SDS011;10179;42.640;23.312;2023-05-16T03:25:36;15.70;;;9.75;;
20036;SDS011;10179;42.640;23.312;2023-05-16T03:28:02;12.88;;;9.60;;
20036;SDS011;10179;42.640;23.312;2023-05-16T03:30:29;15.70;;;9.25;;
20036;SDS011;10179;42.640;23.312;2023-05-16T03:32:54;14.55;;;9.40;;
20036;SDS011;10179;42.640;23.312;2023-05-16T03:35:20;13.90;;;9.50;;
20036;SDS011;10179;42.640;23.312;2023-05-16T03:37:46;19.30;;;9.85;;
20036;SDS011;10179;42.640;23.312;2023-05-16T03:40:12;16.08;;;9.32;;
20036;SDS011;10179;42.640;23.312;2023-05-16T03:42:37;16.63;;;10.32;;
20036;SDS011;10179;42.640;23.312;2023-05-16T03:45:03;17.23;;;9.20;;
20036;SDS011;10179;42.640;23.312;2023-05-16T03:47:30;17.38;;;9.82;;
20036;SDS011;10179;42.640;23.312;2023-05-16T03:49:56;13.48;;;9.60;;
20036;SDS011;10179;42.640;23.312;2023-05-16T03:52:21;12.77;;;9.43;;
20036;SDS011;10179;42.640;23.312;2023-05-16T03:54:47;13.93;;;9.02;;
20036;SDS011;10179;42.640;23.312;2023-05-16T03:57:12;14.02;;;10.02;;
20036;SDS011;10179;42.640;23.312;2023-05-16T03:59:38;17.23;;;9.68;;
20036;SDS011;10179;42.640;23.312;2023-05-16T04:02:03;17.30;;;9.38;;
20036;SDS011;10179;42.640;23.312;2023-05-16T04:04:29;15.98;;;10.38;;
20036;SDS011;10179;42.640;23.312;2023-05-16T04:06:55;17.90;;;9.68;;
20036;SDS011;10179;42.640;23.312;2023-05-16T04:09:20;16.38;;;9.60;;
20036;SDS011;10179;42.640;23.312;2023-05-16T04:11:45;16.35;;;9.85;;
20036;SDS011;10179;42.640;23.312;2023-05-16T04:14:11;16.25;;;10.18;;
20036;SDS011;10179;42.640;23.312;2023-05-16T04:16:36;19.35;;;9.98;;
20036;SDS011;10179;42.640;23.312;2023-05-16T04:19:02;21.58;;;10.57;;
20036;SDS011;10179;42.640;23.312;2023-05-16T04:21:27;15.52;;;9.75;;
20036;SDS011;10179;42.640;23.312;2023-05-16T04:23:53;17.63;;;10.00;;
20036;SDS011;10179;42.640;23.312;2023-05-16T04:26:18;17.50;;;11.13;;
20036;SDS011;10179;42.640;23.312;2023-05-16T04:28:45;14.85;;;9.65;;
20036;SDS011;10179;42.640;23.312;2023-05-16T04:31:11;15.32;;;10.82;;
20036;SDS011;10179;42.640;23.312;2023-05-16T04:33:38;15.32;;;10.38;;
20036;SDS011;10179;42.640;23.312;2023-05-16T04:36:03;18.63;;;11.02;;
20036;SDS011;10179;42.640;23.312;2023-05-16T04:38:30;17.25;;;10.50;;
20036;SDS011;10179;42.640;23.312;2023-05-16T04:40:55;17.13;;;10.48;;
20036;SDS011;10179;42.640;23.312;2023-05-16T04:43:21;15.95;;;10.02;;
20036;SDS011;10179;42.640;23.312;2023-05-16T04:45:47;19.77;;;10.60;;
20036;SDS011;10179;42.640;23.312;2023-05-16T04:48:12;22.35;;;10.82;;
20036;SDS011;10179;42.640;23.312;2023-05-16T04:50:38;23.15;;;10.73;;
20036;SDS011;10179;42.640;23.312;2023-05-16T04:53:03;30.45;;;11.55;;
20036;SDS011;10179;42.640;23.312;2023-05-16T04:55:29;31.55;;;12.32;;
20036;SDS011;10179;42.640;23.312;2023-05-16T04:57:54;29.20;;;11.77;;
20036;SDS011;10179;42.640;23.312;2023-05-16T05:00:20;21.40;;;11.27;;
20036;SDS011;10179;42.640;23.312;2023-05-16T05:02:45;28.60;;;12.15;;
20036;SDS011;10179;42.640;23.312;2023-05-16T05:05:10;27.88;;;11.18;;
20036;SDS011;10179;42.640;23.312;2023-05-16T05:07:36;25.30;;;11.10;;
20036;SDS011;10179;42.640;23.312;2023-05-16T05:10:01;26.45;;;10.82;;
20036;SDS011;10179;42.640;23.312;2023-05-16T05:12:27;23.50;;;11.25;;
20036;SDS011;10179;42.640;23.312;2023-05-16T05:14:53;23.10;;;11.85;;
20036;SDS011;10179;42.640;23.312;2023-05-16T05:17:19;27.40;;;12.07;;
20036;SDS011;10179;42.640;23.312;2023-05-16T05:19:45;19.98;;;11.20;;
20036;SDS011;10179;42.640;23.312;2023-05-16T05:22:12;18.15;;;10.50;;
20036;SDS011;10179;42.640;23.312;2023-05-16T05:24:37;27.40;;;11.68;;
20036;SDS011;10179;42.640;23.312;2023-05-16T05:27:03;22.42;;;10.85;;
20036;SDS011;10179;42.640;23.312;2023-05-16T05:29:28;18.95;;;9.65;;
20036;SDS011;10179;42.640;23.312;2023-05-16T05:31:54;14.23;;;8.73;;
20036;SDS011;10179;42.640;23.312;2023-05-16T05:34:19;15.02;;;9.30;;
20036;SDS011;10179;42.640;23.312;2023-05-16T05:36:45;13.82;;;8.82;;
20036;SDS011;10179;42.640;23.312;2023-05-16T05:39:10;14.85;;;8.93;;
20036;SDS011;10179;42.640;23.312;2023-05-16T05:41:36;14.48;;;8.73;;
20036;SDS011;10179;42.640;23.312;2023-05-16T05:44:02;25.25;;;9.50;;
20036;SDS011;10179;42.640;23.312;2023-05-16T05:46:27;24.90;;;8.85;;
20036;SDS011;10179;42.640;23.312;2023-05-16T05:48:53;15.77;;;8.65;;
20036;SDS011;10179;42.640;23.312;2023-05-16T05:51:19;15.38;;;8.77;;
20036;SDS011;10179;42.640;23.312;2023-05-16T05:53:44;13.25;;;8.20;;
20036;SDS011;10179;42.640;23.312;2023-05-16T05:56:10;14.32;;;8.40;;
20036;SDS011;10179;42.640;23.312;2023-05-16T05:58:35;15.90;;;8.68;;
20036;SDS011;10179;42.640;23.312;2023-05-16T06:01:01;14.77;;;7.38;;
20036;SDS011;10179;42.640;23.312;2023-05-16T06:03:26;12.30;;;7.90;;
20036;SDS011;10179;42.640;23.312;2023-05-16T06:05:52;14.35;;;7.90;;
20036;SDS011;10179;42.640;23.312;2023-05-16T06:08:17;14.85;;;8.48;;
20036;SDS011;10179;42.640;23.312;2023-05-16T06:10:43;17.63;;;8.05;;
20036;SDS011;10179;42.640;23.312;2023-05-16T06:13:08;16.70;;;8.48;;
20036;SDS011;10179;42.640;23.312;2023-05-16T06:15:33;14.40;;;7.60;;
20036;SDS011;10179;42.640;23.312;2023-05-16T06:17:59;12.48;;;7.45;;
20036;SDS011;10179;42.640;23.312;2023-05-16T06:20:24;15.02;;;8.13;;
20036;SDS011;10179;42.640;23.312;2023-05-16T06:22:50;13.93;;;7.78;;
20036;SDS011;10179;42.640;23.312;2023-05-16T06:25:16;11.55;;;7.32;;
20036;SDS011;10179;42.640;23.312;2023-05-16T06:27:41;12.20;;;7.00;;
20036;SDS011;10179;42.640;23.312;2023-05-16T06:30:07;13.75;;;7.97;;
20036;SDS011;10179;42.640;23.312;2023-05-16T06:32:32;17.02;;;7.90;;
20036;SDS011;10179;42.640;23.312;2023-05-16T06:34:58;11.30;;;7.47;;
20036;SDS011;10179;42.640;23.312;2023-05-16T06:37:23;20.13;;;8.05;;
20036;SDS011;10179;42.640;23.312;2023-05-16T06:39:50;14.32;;;7.30;;
20036;SDS011;10179;42.640;23.312;2023-05-16T06:42:15;15.70;;;7.30;;
20036;SDS011;10179;42.640;23.312;2023-05-16T06:44:41;11.57;;;7.30;;
20036;SDS011;10179;42.640;23.312;2023-05-16T06:47:06;17.17;;;7.30;;
20036;SDS011;10179;42.640;23.312;2023-05-16T06:49:32;12.95;;;6.78;;
20036;SDS011;10179;42.640;23.312;2023-05-16T06:51:57;13.00;;;6.15;;
20036;SDS011;10179;42.640;23.312;2023-05-16T06:54:23;21.23;;;7.20;;
20036;SDS011;10179;42.640;23.312;2023-05-16T06:56:48;17.23;;;6.47;;
20036;SDS011;10179;42.640;23.312;2023-05-16T06:59:14;12.63;;;6.03;;
20036;SDS011;10179;42.640;23.312;2023-05-16T07:01:39;12.82;;;6.53;;
20036;SDS011;10179;42.640;23.312;2023-05-16T07:04:05;11.95;;;6.30;;
20036;SDS011;10179;42.640;23.312;2023-05-16T07:06:31;9.93;;;5.57;;
20036;SDS011;10179;42.640;23.312;2023-05-16T07:08:56;17.35;;;6.30;;
20036;SDS011;10179;42.640;23.312;2023-05-16T07:11:22;12.50;;;6.30;;
20036;SDS011;10179;42.640;23.312;2023-05-16T07:13:47;17.58;;;5.93;;
20036;SDS011;10179;42.640;23.312;2023-05-16T07:16:13;14.98;;;5.65;;
20036;SDS011;10179;42.640;23.312;2023-05-16T07:18:38;9.23;;;5.13;;
20036;SDS011;10179;42.640;23.312;2023-05-16T07:21:03;8.90;;;5.43;;
20036;SDS011;10179;42.640;23.312;2023-05-16T07:23:29;9.45;;;5.40;;
20036;SDS011;10179;42.640;23.312;2023-05-16T07:25:55;17.15;;;8.05;;
20036;SDS011;10179;42.640;23.312;2023-05-16T07:28:20;11.95;;;6.50;;
20036;SDS011;10179;42.640;23.312;2023-05-16T07:30:46;16.08;;;6.22;;
20036;SDS011;10179;42.640;23.312;2023-05-16T07:33:12;15.88;;;7.05;;
20036;SDS011;10179;42.640;23.312;2023-05-16T07:35:38;13.32;;;7.00;;
20036;SDS011;10179;42.640;23.312;2023-05-16T07:38:03;18.85;;;6.43;;
20036;SDS011;10179;42.640;23.312;2023-05-16T07:40:29;9.07;;;6.07;;
20036;SDS011;10179;42.640;23.312;2023-05-16T07:42:54;9.07;;;4.95;;
20036;SDS011;10179;42.640;23.312;2023-05-16T07:45:20;13.57;;;5.72;;
20036;SDS011;10179;42.640;23.312;2023-05-16T07:47:45;14.82;;;6.35;;
20036;SDS011;10179;42.640;23.312;2023-05-16T07:50:11;12.10;;;6.38;;
20036;SDS011;10179;42.640;23.312;2023-05-16T07:52:36;11.43;;;5.95;;
20036;SDS011;10179;42.640;23.312;2023-05-16T07:55:02;11.25;;;6.15;;
20036;SDS011;10179;42.640;23.312;2023-05-16T07:57:27;8.52;;;5.45;;
20036;SDS011;10179;42.640;23.312;2023-05-16T07:59:53;22.35;;;6.65;;
20036;SDS011;10179;42.640;23.312;2023-05-16T08:02:19;10.93;;;5.43;;
20036;SDS011;10179;42.640;23.312;2023-05-16T08:04:45;11.32;;;5.57;;
20036;SDS011;10179;42.640;23.312;2023-05-16T08:07:11;10.48;;;5.07;;
20036;SDS011;10179;42.640;23.312;2023-05-16T08:09:36;11.68;;;5.45;;
20036;SDS011;10179;42.640;23.312;2023-05-16T08:12:02;14.98;;;5.20;;
20036;SDS011;10179;42.640;23.312;2023-05-16T08:14:30;12.63;;;5.32;;
20036;SDS011;10179;42.640;23.312;2023-05-16T08:16:59;11.93;;;5.03;;
20036;SDS011;10179;42.640;23.312;2023-05-16T08:19:24;12.98;;;5.68;;
20036;SDS011;10179;42.640;23.312;2023-05-16T08:21:50;13.25;;;6.13;;
20036;SDS011;10179;42.640;23.312;2023-05-16T08:24:16;15.15;;;5.85;;
20036;SDS011;10179;42.640;23.312;2023-05-16T08:26:41;16.40;;;5.55;;
20036;SDS011;10179;42.640;23.312;2023-05-16T08:29:07;14.48;;;5.28;;
20036;SDS011;10179;42.640;23.312;2023-05-16T08:31:32;13.93;;;5.05;;
20036;SDS011;10179;42.640;23.312;2023-05-16T08:33:57;12.10;;;5.15;;
20036;SDS011;10179;42.640;23.312;2023-05-16T08:36:23;7.60;;;5.47;;
20036;SDS011;10179;42.640;23.312;2023-05-16T08:38:50;16.50;;;5.38;;
20036;SDS011;10179;42.640;23.312;2023-05-16T08:41:15;12.07;;;5.10;;
20036;SDS011;10179;42.640;23.312;2023-05-16T08:43:40;8.77;;;4.90;;
20036;SDS011;10179;42.640;23.312;2023-05-16T08:46:06;14.70;;;4.95;;
20036;SDS011;10179;42.640;23.312;2023-05-16T08:48:32;17.35;;;4.60;;
20036;SDS011;10179;42.640;23.312;2023-05-16T08:50:59;13.60;;;4.85;;
20036;SDS011;10179;42.640;23.312;2023-05-16T08:53:29;11.77;;;5.10;;
20036;SDS011;10179;42.640;23.312;2023-05-16T08:56:01;8.15;;;4.90;;
20036;SDS011;10179;42.640;23.312;2023-05-16T08:58:28;7.88;;;4.80;;
20036;SDS011;10179;42.640;23.312;2023-05-16T09:00:54;8.30;;;5.13;;
20036;SDS011;10179;42.640;23.312;2023-05-16T09:03:20;10.10;;;5.20;;
20036;SDS011;10179;42.640;23.312;2023-05-16T09:05:47;11.27;;;5.07;;
20036;SDS011;10179;42.640;23.312;2023-05-16T09:08:14;15.45;;;4.97;;
20036;SDS011;10179;42.640;23.312;2023-05-16T09:10:39;11.07;;;5.60;;
20036;SDS011;10179;42.640;23.312;2023-05-16T09:13:05;10.20;;;4.70;;
20036;SDS011;10179;42.640;23.312;2023-05-16T09:15:31;8.98;;;4.68;;
20036;SDS011;10179;42.640;23.312;2023-05-16T09:17:59;9.35;;;4.70;;
20036;SDS011;10179;42.640;23.312;2023-05-16T09:20:25;10.18;;;5.07;;
20036;SDS011;10179;42.640;23.312;2023-05-16T09:22:54;9.30;;;5.10;;
20036;SDS011;10179;42.640;23.312;2023-05-16T09:25:22;8.50;;;5.07;;
20036;SDS011;10179;42.640;23.312;2023-05-16T09:27:53;10.00;;;5.03;;
20036;SDS011;10179;42.640;23.312;2023-05-16T09:30:23;9.30;;;5.43;;
20036;SDS011;10179;42.640;23.312;2023-05-16T09:32:56;8.93;;;5.15;;
20036;SDS011;10179;42.640;23.312;2023-05-16T09:35:21;7.53;;;4.18;;
20036;SDS011;10179;42.640;23.312;2023-05-16T09:37:47;12.57;;;5.45;;
20036;SDS011;10179;42.640;23.312;2023-05-16T09:40:14;8.52;;;4.93;;
20036;SDS011;10179;42.640;23.312;2023-05-16T09:42:42;8.80;;;5.05;;
20036;SDS011;10179;42.640;23.312;2023-05-16T09:45:14;10.07;;;4.78;;
20036;SDS011;10179;42.640;23.312;2023-05-16T09:47:41;11.95;;;4.93;;
20036;SDS011;10179;42.640;23.312;2023-05-16T09:50:14;9.10;;;4.80;;
20036;SDS011;10179;42.640;23.312;2023-05-16T09:52:40;8.98;;;4.72;;
20036;SDS011;10179;42.640;23.312;2023-05-16T09:55:07;11.90;;;5.13;;
20036;SDS011;10179;42.640;23.312;2023-05-16T09:57:36;13.52;;;6.00;;
20036;SDS011;10179;42.640;23.312;2023-05-16T10:00:03;11.93;;;5.63;;
20036;SDS011;10179;42.640;23.312;2023-05-16T10:02:35;9.95;;;5.20;;
20036;SDS011;10179;42.640;23.312;2023-05-16T10:05:01;6.28;;;4.57;;
20036;SDS011;10179;42.640;23.312;2023-05-16T10:07:27;15.10;;;5.95;;
20036;SDS011;10179;42.640;23.312;2023-05-16T10:09:56;9.85;;;5.60;;
20036;SDS011;10179;42.640;23.312;2023-05-16T10:12:25;8.15;;;5.30;;
20036;SDS011;10179;42.640;23.312;2023-05-16T10:14:55;12.15;;;5.88;;
20036;SDS011;10179;42.640;23.312;2023-05-16T10:17:22;12.25;;;5.90;;
20036;SDS011;10179;42.640;23.312;2023-05-16T10:19:49;8.23;;;5.35;;
20036;SDS011;10179;42.640;23.312;2023-05-16T10:22:15;12.32;;;5.65;;
20036;SDS011;10179;42.640;23.312;2023-05-16T10:24:52;10.43;;;5.70;;
20036;SDS011;10179;42.640;23.312;2023-05-16T10:27:25;13.65;;;6.55;;
20036;SDS011;10179;42.640;23.312;2023-05-16T10:29:52;14.05;;;5.95;;
20036;SDS011;10179;42.640;23.312;2023-05-16T10:32:17;14.18;;;5.80;;
20036;SDS011;10179;42.640;23.312;2023-05-16T10:34:44;10.93;;;5.90;;
20036;SDS011;10179;42.640;23.312;2023-05-16T10:37:10;7.68;;;5.40;;
20036;SDS011;10179;42.640;23.312;2023-05-16T10:39:36;17.92;;;6.43;;
20036;SDS011;10179;42.640;23.312;2023-05-16T10:42:02;19.65;;;5.35;;
20036;SDS011;10179;42.640;23.312;2023-05-16T10:44:30;11.05;;;5.70;;
20036;SDS011;10179;42.640;23.312;2023-05-16T10:46:57;12.63;;;5.68;;
20036;SDS011;10179;42.640;23.312;2023-05-16T10:49:25;11.88;;;5.60;;
20036;SDS011;10179;42.640;23.312;2023-05-16T10:52:04;10.90;;;5.53;;
20036;SDS011;10179;42.640;23.312;2023-05-16T10:54:36;14.60;;;6.57;;
20036;SDS011;10179;42.640;23.312;2023-05-16T10:57:22;8.45;;;5.22;;
20036;SDS011;10179;42.640;23.312;2023-05-16T10:59:48;9.63;;;5.97;;
20036;SDS011;10179;42.640;23.312;2023-05-16T11:02:31;12.00;;;5.30;;
20036;SDS011;10179;42.640;23.312;2023-05-16T11:05:03;11.18;;;5.68;;
20036;SDS011;10179;42.640;23.312;2023-05-16T11:07:33;9.88;;;5.40;;
20036;SDS011;10179;42.640;23.312;2023-05-16T11:10:10;17.60;;;5.25;;
20036;SDS011;10179;42.640;23.312;2023-05-16T11:12:43;11.93;;;5.47;;
20036;SDS011;10179;42.640;23.312;2023-05-16T11:15:25;16.45;;;6.20;;
20036;SDS011;10179;42.640;23.312;2023-05-16T11:18:02;10.23;;;5.88;;
20036;SDS011;10179;42.640;23.312;2023-05-16T11:20:38;12.05;;;5.60;;
20036;SDS011;10179;42.640;23.312;2023-05-16T11:25:40;13.13;;;5.22;;
20036;SDS011;10179;42.640;23.312;2023-05-16T11:28:06;13.23;;;5.78;;
20036;SDS011;10179;42.640;23.312;2023-05-16T11:30:32;7.93;;;5.10;;
20036;SDS011;10179;42.640;23.312;2023-05-16T11:32:58;15.60;;;5.63;;
20036;SDS011;10179;42.640;23.312;2023-05-16T11:35:23;9.40;;;5.55;;
20036;SDS011;10179;42.640;23.312;2023-05-16T11:37:49;14.48;;;5.70;;
20036;SDS011;10179;42.640;23.312;2023-05-16T11:40:15;17.83;;;5.40;;
20036;SDS011;10179;42.640;23.312;2023-05-16T11:45:20;10.68;;;5.45;;
20036;SDS011;10179;42.640;23.312;2023-05-16T11:47:49;15.85;;;6.45;;
20036;SDS011;10179;42.640;23.312;2023-05-16T11:50:15;14.15;;;5.72;;
20036;SDS011;10179;42.640;23.312;2023-05-16T11:52:42;14.43;;;5.28;;
20036;SDS011;10179;42.640;23.312;2023-05-16T11:55:09;14.07;;;5.60;;
20036;SDS011;10179;42.640;23.312;2023-05-16T11:57:36;12.68;;;5.72;;
20036;SDS011;10179;42.640;23.312;2023-05-16T12:00:15;15.40;;;6.60;;
20036;SDS011;10179;42.640;23.312;2023-05-16T12:05:15;14.20;;;6.47;;
20036;SDS011;10179;42.640;23.312;2023-05-16T12:07:44;17.13;;;6.10;;
20036;SDS011;10179;42.640;23.312;2023-05-16T12:10:11;13.68;;;5.18;;
20036;SDS011;10179;42.640;23.312;2023-05-16T12:12:39;12.35;;;5.72;;
20036;SDS011;10179;42.640;23.312;2023-05-16T12:15:07;11.95;;;5.50;;
20036;SDS011;10179;42.640;23.312;2023-05-16T12:17:34;11.68;;;5.45;;
20036;SDS011;10179;42.640;23.312;2023-05-16T12:20:00;16.95;;;5.55;;
20036;SDS011;10179;42.640;23.312;2023-05-16T12:22:29;14.50;;;6.05;;
20036;SDS011;10179;42.640;23.312;2023-05-16T12:24:55;20.42;;;6.20;;
20036;SDS011;10179;42.640;23.312;2023-05-16T12:27:21;15.45;;;5.80;;
20036;SDS011;10179;42.640;23.312;2023-05-16T12:29:47;14.25;;;5.85;;
20036;SDS011;10179;42.640;23.312;2023-05-16T12:32:16;11.63;;;5.47;;
20036;SDS011;10179;42.640;23.312;2023-05-16T12:34:48;9.60;;;5.20;;
20036;SDS011;10179;42.640;23.312;2023-05-16T12:37:15;9.70;;;4.88;;
20036;SDS011;10179;42.640;23.312;2023-05-16T12:39:41;12.77;;;5.00;;
20036;SDS011;10179;42.640;23.312;2023-05-16T12:42:06;9.82;;;4.90;;
20036;SDS011;10179;42.640;23.312;2023-05-16T12:44:33;13.23;;;5.13;;
20036;SDS011;10179;42.640;23.312;2023-05-16T12:46:59;9.23;;;5.20;;
20036;SDS011;10179;42.640;23.312;2023-05-16T12:49:26;11.75;;;5.22;;
20036;SDS011;10179;42.640;23.312;2023-05-16T12:51:53;19.08;;;5.50;;
20036;SDS011;10179;42.640;23.312;2023-05-16T12:54:19;16.33;;;5.53;;
20036;SDS011;10179;42.640;23.312;2023-05-16T12:56:46;14.52;;;5.75;;
20036;SDS011;10179;42.640;23.312;2023-05-16T12:59:12;10.70;;;5.10;;
20036;SDS011;10179;42.640;23.312;2023-05-16T13:01:38;14.35;;;6.43;;
20036;SDS011;10179;42.640;23.312;2023-05-16T13:04:04;9.48;;;5.50;;
20036;SDS011;10179;42.640;23.312;2023-05-16T13:06:30;10.70;;;5.55;;
20036;SDS011;10179;42.640;23.312;2023-05-16T13:08:56;10.77;;;5.22;;
20036;SDS011;10179;42.640;23.312;2023-05-16T13:11:22;17.75;;;6.32;;
20036;SDS011;10179;42.640;23.312;2023-05-16T13:13:50;20.23;;;7.82;;
20036;SDS011;10179;42.640;23.312;2023-05-16T13:16:16;12.65;;;7.15;;
20036;SDS011;10179;42.640;23.312;2023-05-16T13:18:41;15.45;;;7.53;;
20036;SDS011;10179;42.640;23.312;2023-05-16T13:21:06;21.70;;;7.45;;
20036;SDS011;10179;42.640;23.312;2023-05-16T13:23:32;16.30;;;7.40;;
20036;SDS011;10179;42.640;23.312;2023-05-16T13:25:57;17.33;;;7.35;;
20036;SDS011;10179;42.640;23.312;2023-05-16T13:28:25;21.77;;;7.93;;
20036;SDS011;10179;42.640;23.312;2023-05-16T13:30:51;26.13;;;9.65;;
20036;SDS011;10179;42.640;23.312;2023-05-16T13:33:16;26.10;;;9.18;;
20036;SDS011;10179;42.640;23.312;2023-05-16T13:35:44;19.27;;;9.55;;
20036;SDS011;10179;42.640;23.312;2023-05-16T13:38:10;21.48;;;8.02;;
20036;SDS011;10179;42.640;23.312;2023-05-16T13:40:35;22.55;;;7.75;;
20036;SDS011;10179;42.640;23.312;2023-05-16T13:43:01;19.25;;;8.85;;
20036;SDS011;10179;42.640;23.312;2023-05-16T13:45:27;20.50;;;7.90;;
20036;SDS011;10179;42.640;23.312;2023-05-16T13:47:53;22.33;;;8.65;;
20036;SDS011;10179;42.640;23.312;2023-05-16T13:50:18;24.27;;;8.30;;
20036;SDS011;10179;42.640;23.312;2023-05-16T13:52:44;18.35;;;8.18;;
20036;SDS011;10179;42.640;23.312;2023-05-16T13:55:11;14.88;;;8.55;;
20036;SDS011;10179;42.640;23.312;2023-05-16T13:57:38;41.67;;;16.65;;
20036;SDS011;10179;42.640;23.312;2023-05-16T14:00:03;30.75;;;13.63;;
20036;SDS011;10179;42.640;23.312;2023-05-16T14:02:36;21.05;;;9.32;;
20036;SDS011;10179;42.640;23.312;2023-05-16T14:05:05;20.00;;;8.35;;
20036;SDS011;10179;42.640;23.312;2023-05-16T14:07:31;22.88;;;9.13;;
20036;SDS011;10179;42.640;23.312;2023-05-16T14:09:57;17.45;;;8.52;;
20036;SDS011;10179;42.640;23.312;2023-05-16T14:12:22;17.15;;;9.38;;
20036;SDS011;10179;42.640;23.312;2023-05-16T14:14:47;24.50;;;8.57;;
20036;SDS011;10179;42.640;23.312;2023-05-16T14:17:13;19.77;;;9.50;;
20036;SDS011;10179;42.640;23.312;2023-05-16T14:19:38;22.33;;;9.73;;
20036;SDS011;10179;42.640;23.312;2023-05-16T14:22:04;22.30;;;9.52;;
20036;SDS011;10179;42.640;23.312;2023-05-16T14:24:29;20.08;;;8.85;;
20036;SDS011;10179;42.640;23.312;2023-05-16T14:26:55;15.27;;;9.02;;
20036;SDS011;10179;42.640;23.312;2023-05-16T14:29:20;22.38;;;9.63;;
20036;SDS011;10179;42.640;23.312;2023-05-16T14:31:45;15.30;;;9.15;;
20036;SDS011;10179;42.640;23.312;2023-05-16T14:34:11;18.55;;;8.80;;
20036;SDS011;10179;42.640;23.312;2023-05-16T14:36:36;17.77;;;8.65;;